Hellaby, United Kingdom
Current Conditions -  °F | °C
As of 12:20 AM on Monday 24 Nov 2014 (Local Time) from EGCN Reporting Station
Clear Clear  
Wind Chill: 34°   Ceiling: Unl
Heat Index: 39°   Visibility: 6mi
Dew Point: 36°   Wind: 7mph
Humidity: 87%   Direction: 250°WSW
Pressure: 30.18"   Gusts: NA
Location:  53.42°N, 1.24°W
Report Text: EGCN 240020Z 25006KT CAVOK 04/02 Q1022
Loading
Personal Weather Stations






























Interactive Weather Map New forecast layout! Learn more

10-Day Weather Forecast

Advertisements
Track Severe Weather on mobile